createdAt,value
2023-04-08T00:01:00.173Z,14.09
2023-04-08T00:03:27.046Z,14.12
2023-04-08T00:05:54.538Z,14.03
2023-04-08T00:08:21.499Z,14.07
2023-04-08T00:10:48.224Z,14.07
2023-04-08T00:13:15.740Z,13.96
2023-04-08T00:15:42.604Z,13.94
2023-04-08T00:18:09.433Z,14.09
2023-04-08T00:20:36.329Z,13.64
2023-04-08T00:23:03.380Z,13.79
2023-04-08T00:25:30.492Z,13.85
2023-04-08T00:27:57.346Z,14.16
2023-04-08T00:30:24.314Z,14.16
2023-04-08T00:32:51.132Z,14.08
2023-04-08T00:35:17.977Z,14.03
2023-04-08T00:37:44.717Z,14.14
2023-04-08T00:40:11.827Z,13.93
2023-04-08T00:42:39.215Z,14.03
2023-04-08T00:45:06.783Z,13.55
2023-04-08T00:47:36.119Z,13.82
2023-04-08T00:50:03.660Z,13.90
2023-04-08T00:52:30.578Z,14.08
2023-04-08T00:54:57.458Z,14.03
2023-04-08T00:57:24.343Z,14.17
2023-04-08T00:59:51.368Z,14.26
2023-04-08T01:02:33.507Z,14.12
2023-04-08T01:05:05.899Z,14.19
2023-04-08T01:07:35.773Z,14.21
2023-04-08T01:10:11.124Z,13.97
2023-04-08T01:12:45.654Z,14.08
2023-04-08T01:15:12.671Z,13.87
2023-04-08T01:17:40.703Z,14.11
2023-04-08T01:20:09.043Z,14.00
2023-04-08T01:23:00.779Z,14.09
2023-04-08T01:25:32.405Z,13.98
2023-04-08T01:28:01.953Z,14.10
2023-04-08T01:30:30.640Z,13.96
2023-04-08T01:32:58.482Z,14.13
2023-04-08T01:35:26.342Z,14.18
2023-04-08T01:37:54.040Z,14.12
2023-04-08T01:40:22.567Z,14.15
2023-04-08T01:42:51.151Z,13.90
2023-04-08T01:45:18.542Z,14.08
2023-04-08T01:47:47.562Z,13.92
2023-04-08T01:50:15.729Z,13.74
2023-04-08T01:52:46.620Z,13.97
2023-04-08T01:55:14.616Z,13.89
2023-04-08T01:57:42.274Z,13.88
2023-04-08T02:00:13.052Z,13.81
2023-04-08T02:02:51.725Z,13.71
2023-04-08T02:05:19.308Z,13.84
2023-04-08T02:07:48.161Z,14.01
2023-04-08T02:10:15.864Z,13.74
2023-04-08T02:12:44.421Z,13.60
2023-04-08T02:15:13.030Z,13.71
2023-04-08T02:17:48.033Z,13.92
2023-04-08T02:20:18.510Z,13.93
2023-04-08T02:22:54.132Z,13.96
2023-04-08T02:25:24.959Z,13.82
2023-04-08T02:27:53.261Z,13.86
2023-04-08T02:30:20.509Z,14.00
2023-04-08T02:32:48.337Z,13.97
2023-04-08T02:35:16.247Z,13.74
2023-04-08T02:37:43.132Z,13.67
2023-04-08T02:40:42.424Z,13.82
2023-04-08T02:43:09.489Z,13.84
2023-04-08T02:45:39.319Z,13.93
2023-04-08T02:48:06.559Z,13.92
2023-04-08T02:50:33.453Z,14.04
2023-04-08T02:53:00.134Z,13.90
2023-04-08T02:55:28.070Z,14.04
2023-04-08T02:57:54.977Z,13.72
2023-04-08T03:00:21.792Z,13.32
2023-04-08T03:02:48.752Z,13.78
2023-04-08T03:05:16.476Z,13.94
2023-04-08T03:07:43.295Z,13.80
2023-04-08T03:10:10.557Z,13.99
2023-04-08T03:12:37.375Z,13.97
2023-04-08T03:15:04.522Z,14.14
2023-04-08T03:17:33.944Z,14.11
2023-04-08T03:20:01.776Z,14.22
2023-04-08T03:22:28.547Z,14.27
2023-04-08T03:24:55.635Z,13.97
2023-04-08T03:27:22.766Z,13.75
2023-04-08T03:29:49.657Z,13.50
2023-04-08T03:32:16.832Z,13.82
2023-04-08T03:34:44.002Z,13.88
2023-04-08T03:37:11.296Z,13.88
2023-04-08T03:39:38.753Z,14.04
2023-04-08T03:42:05.498Z,14.05
2023-04-08T03:44:32.341Z,14.06
2023-04-08T03:46:59.070Z,13.99
2023-04-08T03:49:26.423Z,13.87
2023-04-08T03:51:53.194Z,13.82
2023-04-08T03:54:19.932Z,14.02
2023-04-08T03:56:46.943Z,13.82
2023-04-08T03:59:13.671Z,13.62
2023-04-08T04:01:41.971Z,13.91
2023-04-08T04:04:09.279Z,13.71
2023-04-08T04:06:36.404Z,13.82
2023-04-08T04:09:03.401Z,13.93
2023-04-08T04:11:30.281Z,13.82
2023-04-08T04:13:57.175Z,13.84
2023-04-08T04:16:24.086Z,13.91
2023-04-08T04:18:52.888Z,13.61
2023-04-08T04:21:20.003Z,13.50
2023-04-08T04:23:46.804Z,13.81
2023-04-08T04:26:13.706Z,13.60
2023-04-08T04:28:40.450Z,13.77
2023-04-08T04:31:07.339Z,13.80
2023-04-08T04:33:34.036Z,13.75
2023-04-08T04:36:00.995Z,13.41
2023-04-08T04:38:28.168Z,13.81
2023-04-08T04:40:54.897Z,13.74
2023-04-08T04:43:21.754Z,13.89
2023-04-08T04:45:48.657Z,14.01
2023-04-08T04:48:15.579Z,13.93
2023-04-08T04:50:42.571Z,13.90
2023-04-08T04:53:09.332Z,13.99
2023-04-08T04:55:39.167Z,13.95
2023-04-08T04:58:06.048Z,14.01
2023-04-08T05:00:32.871Z,14.12
2023-04-08T05:02:59.733Z,14.11
2023-04-08T05:05:26.620Z,14.09
2023-04-08T05:07:53.879Z,13.61
2023-04-08T05:10:20.926Z,13.58
2023-04-08T05:12:47.592Z,13.76
2023-04-08T05:15:14.660Z,13.58
2023-04-08T05:17:41.559Z,13.26
2023-04-08T05:20:08.698Z,13.48
2023-04-08T05:22:35.594Z,13.76
2023-04-08T05:25:02.546Z,13.81
2023-04-08T05:27:29.438Z,13.94
2023-04-08T05:29:56.397Z,14.05
2023-04-08T05:32:23.857Z,13.99
2023-04-08T05:34:50.958Z,14.01
2023-04-08T05:37:17.705Z,13.75
2023-04-08T05:39:44.389Z,13.97
2023-04-08T05:42:12.899Z,13.79
2023-04-08T05:44:41.556Z,13.96
2023-04-08T05:47:08.496Z,14.05
2023-04-08T05:49:35.870Z,14.16
2023-04-08T05:52:03.769Z,14.15
2023-04-08T05:54:36.385Z,14.10
2023-04-08T05:57:03.645Z,14.19
2023-04-08T05:59:30.674Z,14.21
2023-04-08T06:01:57.582Z,12.92
2023-04-08T06:04:24.639Z,12.57
2023-04-08T06:06:51.570Z,12.83
2023-04-08T06:09:18.447Z,13.10
2023-04-08T06:11:47.282Z,13.17
2023-04-08T06:14:14.602Z,13.63
2023-04-08T06:16:41.546Z,13.91
2023-04-08T06:19:08.307Z,14.00
2023-04-08T06:21:35.357Z,14.03
2023-04-08T06:24:02.113Z,14.21
2023-04-08T06:26:28.987Z,14.34
2023-04-08T06:28:56.089Z,14.18
2023-04-08T06:31:23.053Z,14.27
2023-04-08T06:33:49.798Z,14.37
2023-04-08T06:36:16.929Z,14.45
2023-04-08T06:38:43.994Z,14.48
2023-04-08T06:41:11.355Z,14.46
2023-04-08T06:43:38.502Z,14.41
2023-04-08T06:46:05.355Z,14.30
2023-04-08T06:48:32.579Z,14.41
2023-04-08T06:51:00.691Z,14.74
2023-04-08T06:53:30.783Z,14.92
2023-04-08T06:55:57.573Z,14.78
2023-04-08T06:58:24.784Z,14.80
2023-04-08T07:00:51.945Z,14.49
2023-04-08T07:03:18.967Z,14.58
2023-04-08T07:05:46.184Z,14.43
2023-04-08T07:08:13.024Z,14.41
2023-04-08T07:10:40.390Z,14.59
2023-04-08T07:13:07.777Z,14.69
2023-04-08T07:15:34.905Z,14.74
2023-04-08T07:18:01.825Z,14.79
2023-04-08T07:20:30.279Z,14.78
2023-04-08T07:22:58.306Z,14.88
2023-04-08T07:25:25.809Z,14.78
2023-04-08T07:27:52.995Z,14.76
2023-04-08T07:30:20.012Z,14.62
2023-04-08T07:32:47.037Z,14.65
2023-04-08T07:35:14.230Z,14.83
2023-04-08T07:37:41.242Z,14.87
2023-04-08T07:40:08.812Z,14.57
2023-04-08T07:42:35.567Z,14.71
2023-04-08T07:45:02.617Z,14.85
2023-04-08T07:47:29.389Z,14.93
2023-04-08T07:49:56.299Z,15.14
2023-04-08T07:52:23.274Z,14.71
2023-04-08T07:54:50.291Z,14.75
2023-04-08T07:57:17.280Z,14.64
2023-04-08T07:59:44.214Z,14.69
2023-04-08T08:02:11.107Z,15.01
2023-04-08T08:04:38.291Z,15.14
2023-04-08T08:07:05.855Z,15.15
2023-04-08T08:09:32.617Z,14.85
2023-04-08T08:11:59.522Z,15.13
2023-04-08T08:14:27.321Z,15.15
2023-04-08T08:16:54.470Z,15.03
2023-04-08T08:19:21.434Z,15.25
2023-04-08T08:21:48.565Z,15.31
2023-04-08T08:24:17.701Z,15.25
2023-04-08T08:26:49.246Z,15.56
2023-04-08T08:29:16.334Z,15.24
2023-04-08T08:31:43.298Z,15.22
2023-04-08T08:34:10.447Z,15.28
2023-04-08T08:36:37.342Z,15.46
2023-04-08T08:39:04.307Z,15.50
2023-04-08T08:41:37.921Z,15.38
2023-04-08T08:44:08.803Z,15.35
2023-04-08T08:46:35.946Z,15.47
2023-04-08T08:49:02.818Z,15.48
2023-04-08T08:51:30.375Z,15.80
2023-04-08T08:53:58.970Z,15.80
2023-04-08T08:56:26.462Z,15.53
2023-04-08T08:58:53.247Z,15.71
2023-04-08T09:01:36.529Z,15.81
2023-04-08T09:04:14.460Z,16.03
2023-04-08T09:06:51.780Z,16.11
2023-04-08T09:09:19.689Z,16.24
2023-04-08T09:11:47.377Z,16.21
2023-04-08T09:14:32.902Z,15.97
2023-04-08T09:16:59.741Z,16.00
2023-04-08T09:19:35.410Z,16.28
2023-04-08T09:22:09.846Z,16.18
2023-04-08T09:24:43.273Z,16.69
2023-04-08T09:27:10.080Z,16.94
2023-04-08T09:29:39.269Z,16.89
2023-04-08T09:32:24.469Z,16.34
2023-04-08T09:35:01.162Z,16.64
2023-04-08T09:37:28.868Z,16.56
2023-04-08T09:39:57.890Z,16.79
2023-04-08T09:42:24.850Z,17.02
2023-04-08T09:44:56.015Z,17.05
2023-04-08T09:47:26.536Z,16.89
2023-04-08T09:49:58.587Z,16.39
2023-04-08T09:52:34.550Z,16.59
2023-04-08T09:55:05.297Z,16.67
2023-04-08T09:57:45.919Z,16.63
2023-04-08T10:00:17.709Z,16.34
2023-04-08T10:03:09.565Z,16.56
2023-04-08T10:05:42.332Z,16.64
2023-04-08T10:08:10.156Z,16.54
2023-04-08T10:10:39.875Z,16.75
2023-04-08T10:13:10.420Z,16.34
2023-04-08T10:15:39.647Z,16.65
2023-04-08T10:18:09.691Z,16.41
2023-04-08T10:20:43.284Z,16.20
2023-04-08T10:23:15.584Z,16.33
2023-04-08T10:25:45.654Z,16.32
2023-04-08T10:28:18.347Z,16.58
2023-04-08T10:30:47.114Z,16.17
2023-04-08T10:33:16.785Z,16.49
2023-04-08T10:36:12.897Z,16.59
2023-04-08T10:38:40.147Z,16.94
2023-04-08T10:41:07.131Z,17.04
2023-04-08T10:43:35.241Z,16.77
2023-04-08T10:46:02.834Z,16.96
2023-04-08T10:48:29.732Z,16.77
2023-04-08T10:50:58.958Z,17.06
2023-04-08T10:53:36.399Z,17.38
2023-04-08T10:56:11.055Z,17.23
2023-04-08T10:58:52.299Z,17.45
2023-04-08T11:01:20.203Z,17.31
2023-04-08T11:03:48.311Z,17.36
2023-04-08T11:06:15.689Z,17.23
2023-04-08T11:08:42.383Z,17.24
2023-04-08T11:11:11.153Z,17.51
2023-04-08T11:13:51.184Z,16.90
2023-04-08T11:16:21.405Z,16.59
2023-04-08T11:18:48.523Z,16.90
2023-04-08T11:21:17.147Z,16.82
2023-04-08T11:23:54.099Z,17.07
2023-04-08T11:26:21.662Z,17.10
2023-04-08T11:28:52.117Z,17.25
2023-04-08T11:31:22.787Z,17.27
2023-04-08T11:33:54.357Z,17.23
2023-04-08T11:36:22.041Z,17.09
2023-04-08T11:38:49.198Z,17.14
2023-04-08T11:41:17.115Z,17.11
2023-04-08T11:43:54.665Z,17.33
2023-04-08T11:46:21.694Z,17.19
2023-04-08T11:49:08.767Z,16.72
2023-04-08T11:51:38.896Z,16.91
2023-04-08T11:54:09.155Z,16.83
2023-04-08T11:56:48.883Z,16.65
2023-04-08T11:59:15.925Z,17.06
2023-04-08T12:01:42.867Z,17.01
2023-04-08T12:04:11.477Z,17.09
2023-04-08T12:06:38.614Z,17.31
2023-04-08T12:09:05.367Z,17.07
2023-04-08T12:11:34.968Z,16.95
2023-04-08T12:14:02.627Z,17.30
2023-04-08T12:16:29.571Z,17.32
2023-04-08T12:18:56.530Z,17.62
2023-04-08T12:21:23.708Z,17.71
2023-04-08T12:23:50.967Z,17.56
2023-04-08T12:26:17.806Z,17.47
2023-04-08T12:28:49.132Z,17.06
2023-04-08T12:31:16.457Z,17.14
2023-04-08T12:33:43.225Z,17.32
2023-04-08T12:36:12.173Z,17.53
2023-04-08T12:38:40.632Z,17.31
2023-04-08T12:41:07.851Z,17.71
2023-04-08T12:43:34.821Z,18.03
2023-04-08T12:46:02.147Z,17.98
2023-04-08T12:48:29.102Z,18.00
2023-04-08T12:50:59.048Z,17.37
2023-04-08T12:53:26.090Z,17.76
2023-04-08T12:55:57.150Z,18.09
2023-04-08T12:58:27.309Z,18.09
2023-04-08T13:00:54.135Z,17.95
2023-04-08T13:03:21.612Z,17.73
2023-04-08T13:05:48.703Z,17.73
2023-04-08T13:08:16.817Z,17.93
2023-04-08T13:10:43.730Z,18.00
2023-04-08T13:13:10.502Z,17.94
2023-04-08T13:15:38.583Z,18.06
2023-04-08T13:18:05.703Z,18.14
2023-04-08T13:20:37.209Z,18.11
2023-04-08T13:23:09.266Z,17.97
2023-04-08T13:25:36.365Z,17.68
2023-04-08T13:28:03.798Z,17.68
2023-04-08T13:30:30.814Z,17.36
2023-04-08T13:33:31.850Z,17.43
2023-04-08T13:36:03.340Z,17.11
2023-04-08T13:41:29.004Z,17.01
2023-04-08T13:43:56.995Z,17.47
2023-04-08T13:46:46.766Z,17.87
2023-04-08T13:49:16.803Z,18.04
2023-04-08T13:57:54.721Z,18.39
2023-04-08T14:00:24.566Z,18.29
2023-04-08T14:05:46.246Z,17.77
2023-04-08T14:08:14.433Z,17.91
2023-04-08T14:16:16.918Z,17.93
2023-04-08T14:18:59.048Z,17.95
2023-04-08T14:21:30.834Z,17.77
2023-04-08T14:36:53.921Z,18.04
2023-04-08T14:39:21.608Z,18.01
2023-04-08T14:42:23.010Z,18.00
2023-04-08T14:45:23.612Z,17.83
2023-04-08T14:48:15.057Z,17.46
2023-04-08T14:50:50.149Z,17.61
2023-04-08T15:05:02.890Z,18.20
2023-04-08T15:07:33.457Z,18.33
2023-04-08T15:10:00.825Z,18.37
2023-04-08T15:12:29.345Z,18.44
2023-04-08T15:14:56.062Z,18.16
2023-04-08T15:17:26.084Z,18.48
2023-04-08T15:20:00.148Z,18.44
2023-04-08T15:22:29.474Z,18.23
2023-04-08T15:24:56.564Z,18.28
2023-04-08T15:27:23.745Z,17.62
2023-04-08T15:29:50.880Z,17.60
2023-04-08T15:32:17.968Z,17.72
2023-04-08T15:34:44.908Z,17.80
2023-04-08T15:37:11.790Z,17.88
2023-04-08T15:40:04.373Z,18.00
2023-04-08T15:42:31.596Z,18.33
2023-04-08T15:44:59.139Z,18.29
2023-04-08T15:47:27.338Z,18.36
2023-04-08T15:49:56.088Z,18.32
2023-04-08T15:52:23.188Z,18.45
2023-04-08T15:54:49.894Z,18.41
2023-04-08T15:57:16.796Z,18.13
2023-04-08T15:59:43.634Z,18.48
2023-04-08T16:02:11.010Z,18.60
2023-04-08T16:04:38.481Z,18.27
2023-04-08T16:07:05.445Z,18.39
2023-04-08T16:09:34.267Z,18.06
2023-04-08T16:12:01.612Z,17.36
2023-04-08T16:14:29.326Z,17.82
2023-04-08T16:16:57.704Z,17.84
2023-04-08T16:19:27.720Z,17.85
2023-04-08T16:21:54.600Z,17.87
2023-04-08T16:24:23.361Z,17.88
2023-04-08T16:26:50.209Z,17.97
2023-04-08T16:29:17.964Z,17.88
2023-04-08T16:31:45.106Z,17.55
2023-04-08T16:34:14.503Z,17.80
2023-04-08T16:36:41.325Z,17.79
2023-04-08T16:39:08.181Z,18.18
2023-04-08T16:41:35.282Z,18.07
2023-04-08T16:44:02.327Z,18.16
2023-04-08T16:46:29.174Z,17.95
2023-04-08T16:48:56.006Z,18.22
2023-04-08T16:51:25.835Z,18.37
2023-04-08T16:53:53.145Z,18.35
2023-04-08T16:56:21.769Z,18.30
2023-04-08T16:58:57.233Z,18.33
2023-04-08T17:01:24.141Z,18.22
2023-04-08T17:03:53.272Z,18.21
2023-04-08T17:06:20.689Z,18.00
2023-04-08T17:08:47.646Z,18.01
2023-04-08T17:11:15.561Z,18.07
2023-04-08T17:13:43.741Z,18.21
2023-04-08T17:16:17.305Z,18.29
2023-04-08T17:18:45.175Z,18.28
2023-04-08T17:21:14.073Z,17.80
2023-04-08T17:23:41.066Z,17.62
2023-04-08T17:26:11.440Z,17.36
2023-04-08T17:28:38.267Z,17.54
2023-04-08T17:31:05.188Z,17.09
2023-04-08T17:33:33.942Z,17.46
2023-04-08T17:36:00.956Z,17.55
2023-04-08T17:38:28.194Z,17.54
2023-04-08T17:40:55.062Z,17.56
2023-04-08T17:43:22.714Z,17.65
2023-04-08T17:45:50.639Z,17.77
2023-04-08T17:48:19.075Z,17.57
2023-04-08T17:50:46.420Z,17.71
2023-04-08T17:53:13.382Z,17.88
2023-04-08T17:55:40.634Z,17.89
2023-04-08T17:58:07.495Z,17.83
2023-04-08T18:00:34.490Z,17.88
2023-04-08T18:03:01.461Z,17.85
2023-04-08T18:05:29.132Z,17.92
2023-04-08T18:07:56.014Z,17.88
2023-04-08T18:10:24.657Z,17.85
2023-04-08T18:13:00.616Z,17.83
2023-04-08T18:15:42.867Z,17.82
2023-04-08T18:18:09.757Z,17.71
2023-04-08T18:20:37.391Z,17.77
2023-04-08T18:23:04.584Z,17.73
2023-04-08T18:25:32.571Z,17.70
2023-04-08T18:27:59.883Z,17.68
2023-04-08T18:30:27.115Z,17.66
2023-04-08T18:32:54.017Z,17.64
2023-04-08T18:35:21.299Z,17.65
2023-04-08T18:37:48.195Z,17.59
2023-04-08T18:40:15.782Z,17.49
2023-04-08T18:42:42.590Z,16.99
2023-04-08T18:45:09.672Z,16.35
2023-04-08T18:47:37.690Z,16.30
2023-04-08T18:50:05.487Z,16.69
2023-04-08T18:52:32.522Z,16.62
2023-04-08T18:55:02.920Z,16.80
2023-04-08T18:57:29.731Z,16.44
2023-04-08T18:59:56.847Z,16.46
2023-04-08T19:02:23.882Z,16.76
2023-04-08T19:04:53.183Z,16.37
2023-04-08T19:07:20.372Z,16.66
2023-04-08T19:09:47.426Z,16.71
2023-04-08T19:12:14.676Z,16.65
2023-04-08T19:14:42.239Z,16.73
2023-04-08T19:17:10.184Z,16.61
2023-04-08T19:19:37.405Z,16.67
2023-04-08T19:22:06.289Z,16.65
2023-04-08T19:24:33.440Z,16.24
2023-04-08T19:27:01.123Z,16.68
2023-04-08T19:29:29.822Z,16.76
2023-04-08T19:31:59.709Z,16.73
2023-04-08T19:34:26.901Z,16.67
2023-04-08T19:36:54.563Z,16.65
2023-04-08T19:39:21.587Z,16.59
2023-04-08T19:41:48.829Z,16.62
2023-04-08T19:44:18.798Z,16.62
2023-04-08T19:46:45.754Z,16.56
2023-04-08T19:49:12.741Z,16.52
2023-04-08T19:51:39.726Z,16.49
2023-04-08T19:54:06.455Z,16.49
2023-04-08T19:56:34.088Z,16.36
2023-04-08T19:59:01.948Z,16.29
2023-04-08T20:01:29.525Z,16.30
2023-04-08T20:03:56.593Z,16.22
2023-04-08T20:06:24.459Z,16.28
2023-04-08T20:08:53.026Z,16.25
2023-04-08T20:11:20.934Z,16.24
2023-04-08T20:13:49.449Z,16.25
2023-04-08T20:16:17.016Z,16.38
2023-04-08T20:18:43.781Z,16.25
2023-04-08T20:21:13.899Z,16.23
2023-04-08T20:23:44.512Z,16.10
2023-04-08T20:26:12.724Z,16.12
2023-04-08T20:28:40.322Z,16.15
2023-04-08T20:31:07.826Z,16.06
2023-04-08T20:33:35.093Z,15.91
2023-04-08T20:36:02.095Z,15.79
2023-04-08T20:38:29.043Z,15.92
2023-04-08T20:40:56.209Z,15.75
2023-04-08T20:43:23.885Z,15.72
2023-04-08T20:45:50.780Z,15.82
2023-04-08T20:48:17.656Z,15.85
2023-04-08T20:50:45.103Z,15.80
2023-04-08T20:53:13.401Z,15.78
2023-04-08T20:55:40.540Z,15.73
2023-04-08T20:58:07.830Z,15.66
2023-04-08T21:00:35.016Z,15.47
2023-04-08T21:03:02.145Z,15.53
2023-04-08T21:05:30.488Z,15.24
2023-04-08T21:07:57.843Z,15.40
2023-04-08T21:10:25.023Z,15.52
2023-04-08T21:12:51.698Z,15.26
2023-04-08T21:15:18.642Z,15.41
2023-04-08T21:17:45.397Z,15.50
2023-04-08T21:20:12.817Z,15.38
2023-04-08T21:22:39.778Z,15.39
2023-04-08T21:25:07.040Z,15.32
2023-04-08T21:27:33.805Z,15.41
2023-04-08T21:30:00.694Z,15.45
2023-04-08T21:32:29.976Z,15.33
2023-04-08T21:34:57.038Z,15.24
2023-04-08T21:37:23.924Z,15.26
2023-04-08T21:39:51.734Z,15.26
2023-04-08T21:42:22.875Z,15.20
2023-04-08T21:44:53.699Z,15.10
2023-04-08T21:47:21.028Z,15.20
2023-04-08T21:49:54.543Z,15.31
2023-04-08T21:52:29.149Z,15.26
2023-04-08T21:55:01.876Z,15.16
2023-04-08T21:57:28.806Z,15.18
2023-04-08T22:00:13.525Z,15.24
2023-04-08T22:02:45.878Z,15.18
2023-04-08T22:05:12.887Z,15.17
2023-04-08T22:07:39.708Z,15.17
2023-04-08T22:10:07.438Z,14.97
2023-04-08T22:12:34.613Z,14.89
2023-04-08T22:15:16.082Z,14.92
2023-04-08T22:17:43.259Z,14.66
2023-04-08T22:20:12.629Z,14.70
2023-04-08T22:22:39.551Z,14.79
2023-04-08T22:25:08.010Z,14.84
2023-04-08T22:27:35.058Z,14.82
2023-04-08T22:30:09.219Z,14.77
2023-04-08T22:32:42.649Z,14.90
2023-04-08T22:35:10.755Z,14.64
2023-04-08T22:37:37.497Z,14.56
2023-04-08T22:40:17.434Z,14.67
2023-04-08T22:42:57.638Z,14.60
2023-04-08T22:45:24.856Z,14.54
2023-04-08T22:47:53.776Z,14.56
2023-04-08T22:50:20.953Z,14.41
2023-04-08T22:52:51.260Z,14.40
2023-04-08T22:55:20.684Z,14.23
2023-04-08T22:57:47.853Z,14.49
2023-04-08T23:00:16.030Z,14.31
2023-04-08T23:02:43.836Z,14.30
2023-04-08T23:05:12.072Z,14.24
2023-04-08T23:07:39.071Z,14.56
2023-04-08T23:10:06.700Z,14.47
2023-04-08T23:12:35.122Z,14.49
2023-04-08T23:15:07.155Z,14.49
2023-04-08T23:17:41.777Z,14.30
2023-04-08T23:20:09.170Z,14.14
2023-04-08T23:22:35.856Z,14.21
2023-04-08T23:25:02.673Z,14.20
2023-04-08T23:27:32.260Z,14.21
2023-04-08T23:30:05.436Z,14.21
2023-04-08T23:32:33.137Z,14.18
2023-04-08T23:35:00.439Z,14.11
2023-04-08T23:37:27.679Z,14.01
2023-04-08T23:39:54.772Z,14.18
2023-04-08T23:42:26.900Z,14.16
2023-04-08T23:44:54.879Z,14.12
2023-04-08T23:47:22.114Z,14.13
2023-04-08T23:49:49.389Z,13.81
2023-04-08T23:52:16.386Z,13.87
2023-04-08T23:54:43.530Z,14.01
2023-04-08T23:57:10.334Z,13.79
2023-04-08T23:59:37.158Z,13.71
